sensor_id;sensor_type;location;lat;lon;timestamp;temperature;humidity
15900;DHT22;8048;50.644;6.184;2023-02-02T00:00:46;5.30;99.90
15900;DHT22;8048;50.644;6.184;2023-02-02T00:03:11;5.40;99.90
15900;DHT22;8048;50.644;6.184;2023-02-02T00:05:37;5.40;99.90
15900;DHT22;8048;50.644;6.184;2023-02-02T00:08:02;5.40;99.90
15900;DHT22;8048;50.644;6.184;2023-02-02T00:10:28;5.40;99.90
15900;DHT22;8048;50.644;6.184;2023-02-02T00:12:53;5.40;99.90
15900;DHT22;8048;50.644;6.184;2023-02-02T00:15:22;5.40;99.90
15900;DHT22;8048;50.644;6.184;2023-02-02T00:17:48;5.40;99.90
15900;DHT22;8048;50.644;6.184;2023-02-02T00:20:14;5.40;99.90
15900;DHT22;8048;50.644;6.184;2023-02-02T00:22:39;5.40;99.90
15900;DHT22;8048;50.644;6.184;2023-02-02T00:25:05;5.40;99.90
15900;DHT22;8048;50.644;6.184;2023-02-02T00:27:31;5.50;99.90
15900;DHT22;8048;50.644;6.184;2023-02-02T00:29:57;5.40;99.90
15900;DHT22;8048;50.644;6.184;2023-02-02T00:32:22;5.40;99.90
15900;DHT22;8048;50.644;6.184;2023-02-02T00:34:48;5.40;99.90
15900;DHT22;8048;50.644;6.184;2023-02-02T00:37:13;5.40;99.90
15900;DHT22;8048;50.644;6.184;2023-02-02T00:39:39;5.50;99.90
15900;DHT22;8048;50.644;6.184;2023-02-02T00:42:04;5.40;99.90
15900;DHT22;8048;50.644;6.184;2023-02-02T00:44:30;5.50;99.90
15900;DHT22;8048;50.644;6.184;2023-02-02T00:47:14;5.50;99.90
15900;DHT22;8048;50.644;6.184;2023-02-02T00:49:41;5.50;99.90
15900;DHT22;8048;50.644;6.184;2023-02-02T00:52:06;5.50;99.90
15900;DHT22;8048;50.644;6.184;2023-02-02T00:54:32;5.50;99.90
15900;DHT22;8048;50.644;6.184;2023-02-02T00:56:57;5.50;99.90
15900;DHT22;8048;50.644;6.184;2023-02-02T00:59:23;5.50;99.90
15900;DHT22;8048;50.644;6.184;2023-02-02T01:01:49;5.40;99.90
15900;DHT22;8048;50.644;6.184;2023-02-02T01:04:14;5.40;99.90
15900;DHT22;8048;50.644;6.184;2023-02-02T01:06:40;5.40;99.90
15900;DHT22;8048;50.644;6.184;2023-02-02T01:09:06;5.40;99.90
15900;DHT22;8048;50.644;6.184;2023-02-02T01:11:32;5.40;99.90
15900;DHT22;8048;50.644;6.184;2023-02-02T01:13:57;5.40;99.90
15900;DHT22;8048;50.644;6.184;2023-02-02T01:16:23;5.40;99.90
15900;DHT22;8048;50.644;6.184;2023-02-02T01:18:50;5.40;99.90
15900;DHT22;8048;50.644;6.184;2023-02-02T01:21:16;5.40;99.90
15900;DHT22;8048;50.644;6.184;2023-02-02T01:23:42;5.40;99.90
15900;DHT22;8048;50.644;6.184;2023-02-02T01:26:10;5.40;99.90
15900;DHT22;8048;50.644;6.184;2023-02-02T01:28:36;5.40;99.90
15900;DHT22;8048;50.644;6.184;2023-02-02T01:31:11;5.40;99.90
15900;DHT22;8048;50.644;6.184;2023-02-02T01:33:37;5.40;99.90
15900;DHT22;8048;50.644;6.184;2023-02-02T01:36:07;5.40;99.90
15900;DHT22;8048;50.644;6.184;2023-02-02T01:38:32;5.40;99.90
15900;DHT22;8048;50.644;6.184;2023-02-02T01:40:58;5.30;99.90
15900;DHT22;8048;50.644;6.184;2023-02-02T01:43:27;5.40;99.90
15900;DHT22;8048;50.644;6.184;2023-02-02T01:45:55;5.30;99.90
15900;DHT22;8048;50.644;6.184;2023-02-02T01:48:25;5.30;99.90
15900;DHT22;8048;50.644;6.184;2023-02-02T01:50:57;5.30;99.90
15900;DHT22;8048;50.644;6.184;2023-02-02T01:53:23;5.30;99.90
15900;DHT22;8048;50.644;6.184;2023-02-02T01:55:49;5.30;99.90
15900;DHT22;8048;50.644;6.184;2023-02-02T01:58:34;5.30;99.90
15900;DHT22;8048;50.644;6.184;2023-02-02T02:01:01;5.30;99.90
15900;DHT22;8048;50.644;6.184;2023-02-02T02:03:28;5.30;99.90
15900;DHT22;8048;50.644;6.184;2023-02-02T02:05:57;5.20;99.90
15900;DHT22;8048;50.644;6.184;2023-02-02T02:08:31;5.30;99.90
15900;DHT22;8048;50.644;6.184;2023-02-02T02:10:59;5.30;99.90
15900;DHT22;8048;50.644;6.184;2023-02-02T02:13:26;5.30;99.90
15900;DHT22;8048;50.644;6.184;2023-02-02T02:21:45;5.20;99.90
15900;DHT22;8048;50.644;6.184;2023-02-02T02:24:54;5.30;99.90
15900;DHT22;8048;50.644;6.184;2023-02-02T02:30:48;5.30;99.90
15900;DHT22;8048;50.644;6.184;2023-02-02T02:36:50;5.30;99.90
15900;DHT22;8048;50.644;6.184;2023-02-02T02:39:36;5.30;99.90
15900;DHT22;8048;50.644;6.184;2023-02-02T02:42:08;5.20;99.90
15900;DHT22;8048;50.644;6.184;2023-02-02T02:44:36;5.30;99.90
15900;DHT22;8048;50.644;6.184;2023-02-02T02:47:02;5.30;99.90
15900;DHT22;8048;50.644;6.184;2023-02-02T02:49:28;5.30;99.90
15900;DHT22;8048;50.644;6.184;2023-02-02T02:51:54;5.40;99.90
15900;DHT22;8048;50.644;6.184;2023-02-02T02:54:23;5.30;99.90
15900;DHT22;8048;50.644;6.184;2023-02-02T02:57:16;5.40;99.90
15900;DHT22;8048;50.644;6.184;2023-02-02T03:00:29;5.30;99.90
15900;DHT22;8048;50.644;6.184;2023-02-02T03:05:38;5.30;99.90
15900;DHT22;8048;50.644;6.184;2023-02-02T03:08:20;5.30;99.90
15900;DHT22;8048;50.644;6.184;2023-02-02T03:10:48;5.30;99.90
15900;DHT22;8048;50.644;6.184;2023-02-02T03:13:15;5.30;99.90
15900;DHT22;8048;50.644;6.184;2023-02-02T03:15:45;5.30;99.90
15900;DHT22;8048;50.644;6.184;2023-02-02T03:18:13;5.30;99.90
15900;DHT22;8048;50.644;6.184;2023-02-02T03:20:39;5.30;99.90
15900;DHT22;8048;50.644;6.184;2023-02-02T03:23:06;5.30;99.90
15900;DHT22;8048;50.644;6.184;2023-02-02T03:25:31;5.30;99.90
15900;DHT22;8048;50.644;6.184;2023-02-02T03:27:57;5.30;99.90
15900;DHT22;8048;50.644;6.184;2023-02-02T03:30:23;5.30;99.90
15900;DHT22;8048;50.644;6.184;2023-02-02T03:32:49;5.30;99.90
15900;DHT22;8048;50.644;6.184;2023-02-02T03:35:16;5.30;99.90
15900;DHT22;8048;50.644;6.184;2023-02-02T03:37:41;5.30;99.90
15900;DHT22;8048;50.644;6.184;2023-02-02T03:40:07;5.30;99.90
15900;DHT22;8048;50.644;6.184;2023-02-02T03:42:33;5.30;99.90
15900;DHT22;8048;50.644;6.184;2023-02-02T03:44:59;5.30;99.90
15900;DHT22;8048;50.644;6.184;2023-02-02T03:47:28;5.40;99.90
15900;DHT22;8048;50.644;6.184;2023-02-02T03:49:54;5.40;99.90
15900;DHT22;8048;50.644;6.184;2023-02-02T03:52:19;5.40;99.90
15900;DHT22;8048;50.644;6.184;2023-02-02T03:54:45;5.40;99.90
15900;DHT22;8048;50.644;6.184;2023-02-02T03:57:10;5.40;99.90
15900;DHT22;8048;50.644;6.184;2023-02-02T03:59:36;5.40;99.90
15900;DHT22;8048;50.644;6.184;2023-02-02T04:02:02;5.40;99.90
15900;DHT22;8048;50.644;6.184;2023-02-02T04:04:27;5.40;99.90
15900;DHT22;8048;50.644;6.184;2023-02-02T04:06:53;5.40;99.90
15900;DHT22;8048;50.644;6.184;2023-02-02T04:09:19;5.40;99.90
15900;DHT22;8048;50.644;6.184;2023-02-02T04:11:44;5.30;99.90
15900;DHT22;8048;50.644;6.184;2023-02-02T04:14:10;5.30;99.90
15900;DHT22;8048;50.644;6.184;2023-02-02T04:16:35;5.30;99.90
15900;DHT22;8048;50.644;6.184;2023-02-02T04:19:03;5.30;99.90
15900;DHT22;8048;50.644;6.184;2023-02-02T04:21:28;5.30;99.90
15900;DHT22;8048;50.644;6.184;2023-02-02T04:23:55;5.40;99.90
15900;DHT22;8048;50.644;6.184;2023-02-02T04:26:21;5.40;99.90
15900;DHT22;8048;50.644;6.184;2023-02-02T04:28:50;5.40;99.90
15900;DHT22;8048;50.644;6.184;2023-02-02T04:31:15;5.40;99.90
15900;DHT22;8048;50.644;6.184;2023-02-02T04:33:41;5.30;99.90
15900;DHT22;8048;50.644;6.184;2023-02-02T04:36:07;5.40;99.90
15900;DHT22;8048;50.644;6.184;2023-02-02T04:38:32;5.40;99.90
15900;DHT22;8048;50.644;6.184;2023-02-02T04:40:58;5.40;99.90
15900;DHT22;8048;50.644;6.184;2023-02-02T04:43:29;5.40;99.90
15900;DHT22;8048;50.644;6.184;2023-02-02T04:45:57;5.40;99.90
15900;DHT22;8048;50.644;6.184;2023-02-02T04:48:23;5.40;99.90
15900;DHT22;8048;50.644;6.184;2023-02-02T04:50:48;5.40;99.90
15900;DHT22;8048;50.644;6.184;2023-02-02T04:53:14;5.30;99.90
15900;DHT22;8048;50.644;6.184;2023-02-02T04:55:39;5.30;99.90
15900;DHT22;8048;50.644;6.184;2023-02-02T04:58:05;5.30;99.90
15900;DHT22;8048;50.644;6.184;2023-02-02T05:00:30;5.30;99.90
15900;DHT22;8048;50.644;6.184;2023-02-02T05:02:56;5.40;99.90
15900;DHT22;8048;50.644;6.184;2023-02-02T05:05:21;5.30;99.90
15900;DHT22;8048;50.644;6.184;2023-02-02T05:07:47;5.30;99.90
15900;DHT22;8048;50.644;6.184;2023-02-02T05:10:12;5.30;99.90
15900;DHT22;8048;50.644;6.184;2023-02-02T05:12:38;5.30;99.90
15900;DHT22;8048;50.644;6.184;2023-02-02T05:15:04;5.30;99.90
15900;DHT22;8048;50.644;6.184;2023-02-02T05:17:30;5.30;99.90
15900;DHT22;8048;50.644;6.184;2023-02-02T05:19:56;5.30;99.90
15900;DHT22;8048;50.644;6.184;2023-02-02T05:22:21;5.30;99.90
15900;DHT22;8048;50.644;6.184;2023-02-02T05:24:47;5.40;99.90
15900;DHT22;8048;50.644;6.184;2023-02-02T05:27:12;5.40;99.90
15900;DHT22;8048;50.644;6.184;2023-02-02T05:29:38;5.30;99.90
15900;DHT22;8048;50.644;6.184;2023-02-02T05:32:03;5.40;99.90
15900;DHT22;8048;50.644;6.184;2023-02-02T05:34:29;5.30;99.90
15900;DHT22;8048;50.644;6.184;2023-02-02T05:36:54;5.30;99.90
15900;DHT22;8048;50.644;6.184;2023-02-02T05:39:20;5.30;99.90
15900;DHT22;8048;50.644;6.184;2023-02-02T05:41:45;5.30;99.90
15900;DHT22;8048;50.644;6.184;2023-02-02T05:44:12;5.30;99.90
15900;DHT22;8048;50.644;6.184;2023-02-02T05:46:38;5.30;99.90
15900;DHT22;8048;50.644;6.184;2023-02-02T05:49:03;5.30;99.90
15900;DHT22;8048;50.644;6.184;2023-02-02T05:51:36;5.30;99.90
15900;DHT22;8048;50.644;6.184;2023-02-02T05:54:03;5.30;99.90
15900;DHT22;8048;50.644;6.184;2023-02-02T05:56:28;5.20;99.90
15900;DHT22;8048;50.644;6.184;2023-02-02T05:58:54;5.20;99.90
15900;DHT22;8048;50.644;6.184;2023-02-02T06:01:20;5.30;99.90
15900;DHT22;8048;50.644;6.184;2023-02-02T06:03:45;5.30;99.90
15900;DHT22;8048;50.644;6.184;2023-02-02T06:06:11;5.30;99.90
15900;DHT22;8048;50.644;6.184;2023-02-02T06:08:37;5.30;99.90
15900;DHT22;8048;50.644;6.184;2023-02-02T06:11:10;5.30;99.90
15900;DHT22;8048;50.644;6.184;2023-02-02T06:13:36;5.30;99.90
15900;DHT22;8048;50.644;6.184;2023-02-02T06:16:01;5.30;99.90
15900;DHT22;8048;50.644;6.184;2023-02-02T06:18:27;5.30;99.90
15900;DHT22;8048;50.644;6.184;2023-02-02T06:20:59;5.30;99.90
15900;DHT22;8048;50.644;6.184;2023-02-02T06:23:25;5.30;99.90
15900;DHT22;8048;50.644;6.184;2023-02-02T06:25:51;5.30;99.90
15900;DHT22;8048;50.644;6.184;2023-02-02T06:28:17;5.30;99.90
15900;DHT22;8048;50.644;6.184;2023-02-02T06:30:42;5.30;99.90
15900;DHT22;8048;50.644;6.184;2023-02-02T06:33:08;5.40;99.90
15900;DHT22;8048;50.644;6.184;2023-02-02T06:35:34;5.30;99.90
15900;DHT22;8048;50.644;6.184;2023-02-02T06:37:59;5.30;99.90
15900;DHT22;8048;50.644;6.184;2023-02-02T06:40:26;5.30;99.90
15900;DHT22;8048;50.644;6.184;2023-02-02T06:43:00;5.30;99.90
15900;DHT22;8048;50.644;6.184;2023-02-02T06:45:27;5.30;99.90
15900;DHT22;8048;50.644;6.184;2023-02-02T06:47:53;5.30;99.90
15900;DHT22;8048;50.644;6.184;2023-02-02T06:50:19;5.30;99.90
15900;DHT22;8048;50.644;6.184;2023-02-02T06:52:51;5.30;99.90
15900;DHT22;8048;50.644;6.184;2023-02-02T06:55:18;5.30;99.90
15900;DHT22;8048;50.644;6.184;2023-02-02T06:57:44;5.30;99.90
15900;DHT22;8048;50.644;6.184;2023-02-02T07:00:10;5.20;99.90
15900;DHT22;8048;50.644;6.184;2023-02-02T07:02:36;5.30;99.90
15900;DHT22;8048;50.644;6.184;2023-02-02T07:05:03;5.30;99.90
15900;DHT22;8048;50.644;6.184;2023-02-02T07:07:32;5.30;99.90
15900;DHT22;8048;50.644;6.184;2023-02-02T07:09:58;5.30;99.90
15900;DHT22;8048;50.644;6.184;2023-02-02T07:12:24;5.20;99.90
15900;DHT22;8048;50.644;6.184;2023-02-02T07:14:51;5.20;99.90
15900;DHT22;8048;50.644;6.184;2023-02-02T07:17:16;5.20;99.90
15900;DHT22;8048;50.644;6.184;2023-02-02T07:19:42;5.30;99.90
15900;DHT22;8048;50.644;6.184;2023-02-02T07:22:07;5.20;99.90
15900;DHT22;8048;50.644;6.184;2023-02-02T07:24:33;5.20;99.90
15900;DHT22;8048;50.644;6.184;2023-02-02T07:26:58;5.30;99.90
15900;DHT22;8048;50.644;6.184;2023-02-02T07:29:24;5.30;99.90
15900;DHT22;8048;50.644;6.184;2023-02-02T07:31:50;5.30;99.90
15900;DHT22;8048;50.644;6.184;2023-02-02T07:34:15;5.30;99.90
15900;DHT22;8048;50.644;6.184;2023-02-02T07:36:41;5.30;99.90
15900;DHT22;8048;50.644;6.184;2023-02-02T07:39:06;5.30;99.90
15900;DHT22;8048;50.644;6.184;2023-02-02T07:41:35;5.30;99.90
15900;DHT22;8048;50.644;6.184;2023-02-02T07:44:01;5.30;99.90
15900;DHT22;8048;50.644;6.184;2023-02-02T07:46:27;5.30;99.90
15900;DHT22;8048;50.644;6.184;2023-02-02T07:48:54;5.30;99.90
15900;DHT22;8048;50.644;6.184;2023-02-02T07:51:20;5.40;99.90
15900;DHT22;8048;50.644;6.184;2023-02-02T07:53:47;5.40;99.90
15900;DHT22;8048;50.644;6.184;2023-02-02T07:56:26;5.30;99.90
15900;DHT22;8048;50.644;6.184;2023-02-02T07:58:53;5.30;99.90
15900;DHT22;8048;50.644;6.184;2023-02-02T08:01:20;5.30;99.90
15900;DHT22;8048;50.644;6.184;2023-02-02T08:03:48;5.40;99.90
15900;DHT22;8048;50.644;6.184;2023-02-02T08:06:18;5.40;99.90
15900;DHT22;8048;50.644;6.184;2023-02-02T08:08:44;5.40;99.90
15900;DHT22;8048;50.644;6.184;2023-02-02T08:11:11;5.40;99.90
15900;DHT22;8048;50.644;6.184;2023-02-02T08:13:38;5.40;99.90
15900;DHT22;8048;50.644;6.184;2023-02-02T08:16:05;5.40;99.90
15900;DHT22;8048;50.644;6.184;2023-02-02T08:18:32;5.40;99.90
15900;DHT22;8048;50.644;6.184;2023-02-02T08:20:59;5.40;99.90
15900;DHT22;8048;50.644;6.184;2023-02-02T08:23:25;5.40;99.90
15900;DHT22;8048;50.644;6.184;2023-02-02T08:25:51;5.40;99.90
15900;DHT22;8048;50.644;6.184;2023-02-02T08:28:16;5.40;99.90
15900;DHT22;8048;50.644;6.184;2023-02-02T08:30:42;5.40;99.90
15900;DHT22;8048;50.644;6.184;2023-02-02T08:33:08;5.40;99.90
15900;DHT22;8048;50.644;6.184;2023-02-02T08:35:34;5.50;99.90
15900;DHT22;8048;50.644;6.184;2023-02-02T08:37:59;5.50;99.90
15900;DHT22;8048;50.644;6.184;2023-02-02T08:40:29;5.50;99.90
15900;DHT22;8048;50.644;6.184;2023-02-02T08:42:55;5.50;99.90
15900;DHT22;8048;50.644;6.184;2023-02-02T08:45:20;5.50;99.90
15900;DHT22;8048;50.644;6.184;2023-02-02T08:47:46;5.50;99.90
15900;DHT22;8048;50.644;6.184;2023-02-02T08:50:12;5.50;99.90
15900;DHT22;8048;50.644;6.184;2023-02-02T08:52:37;5.50;99.90
15900;DHT22;8048;50.644;6.184;2023-02-02T08:55:03;5.50;99.90
15900;DHT22;8048;50.644;6.184;2023-02-02T08:57:29;5.50;99.90
15900;DHT22;8048;50.644;6.184;2023-02-02T08:59:57;5.50;99.90
15900;DHT22;8048;50.644;6.184;2023-02-02T09:02:22;5.60;99.90
15900;DHT22;8048;50.644;6.184;2023-02-02T09:04:48;5.60;99.90
15900;DHT22;8048;50.644;6.184;2023-02-02T09:07:13;5.60;99.90
15900;DHT22;8048;50.644;6.184;2023-02-02T09:09:39;5.50;99.90
15900;DHT22;8048;50.644;6.184;2023-02-02T09:12:04;5.50;99.90
15900;DHT22;8048;50.644;6.184;2023-02-02T09:14:30;5.50;99.90
15900;DHT22;8048;50.644;6.184;2023-02-02T09:16:55;5.50;99.90
15900;DHT22;8048;50.644;6.184;2023-02-02T09:19:21;5.50;99.90
15900;DHT22;8048;50.644;6.184;2023-02-02T09:21:48;5.60;99.90
15900;DHT22;8048;50.644;6.184;2023-02-02T09:24:14;5.60;99.90
15900;DHT22;8048;50.644;6.184;2023-02-02T09:26:41;5.70;99.90
15900;DHT22;8048;50.644;6.184;2023-02-02T09:29:10;5.60;99.90
15900;DHT22;8048;50.644;6.184;2023-02-02T09:31:37;5.60;99.90
15900;DHT22;8048;50.644;6.184;2023-02-02T09:34:04;5.70;99.90
15900;DHT22;8048;50.644;6.184;2023-02-02T09:36:31;5.70;99.90
15900;DHT22;8048;50.644;6.184;2023-02-02T09:38:57;5.70;99.90
15900;DHT22;8048;50.644;6.184;2023-02-02T09:44:30;5.70;99.90
15900;DHT22;8048;50.644;6.184;2023-02-02T09:47:18;5.60;99.90
15900;DHT22;8048;50.644;6.184;2023-02-02T09:50:02;5.70;99.90
15900;DHT22;8048;50.644;6.184;2023-02-02T09:52:33;5.70;99.90
15900;DHT22;8048;50.644;6.184;2023-02-02T09:55:18;5.70;99.90
15900;DHT22;8048;50.644;6.184;2023-02-02T09:57:54;5.80;99.90
15900;DHT22;8048;50.644;6.184;2023-02-02T10:02:56;5.70;99.90
15900;DHT22;8048;50.644;6.184;2023-02-02T10:05:27;5.80;99.90
15900;DHT22;8048;50.644;6.184;2023-02-02T10:07:56;5.80;99.90
15900;DHT22;8048;50.644;6.184;2023-02-02T10:10:39;5.80;99.90
15900;DHT22;8048;50.644;6.184;2023-02-02T10:13:17;5.80;99.90
15900;DHT22;8048;50.644;6.184;2023-02-02T10:16:03;5.90;99.90
15900;DHT22;8048;50.644;6.184;2023-02-02T10:18:39;5.90;99.90
15900;DHT22;8048;50.644;6.184;2023-02-02T10:21:10;5.90;99.90
15900;DHT22;8048;50.644;6.184;2023-02-02T10:26:21;5.90;99.90
15900;DHT22;8048;50.644;6.184;2023-02-02T10:31:34;5.90;99.90
15900;DHT22;8048;50.644;6.184;2023-02-02T10:34:12;5.90;99.90
15900;DHT22;8048;50.644;6.184;2023-02-02T10:39:56;5.90;99.90
15900;DHT22;8048;50.644;6.184;2023-02-02T10:45:35;5.90;99.90
15900;DHT22;8048;50.644;6.184;2023-02-02T10:48:03;6.00;99.90
15900;DHT22;8048;50.644;6.184;2023-02-02T10:50:28;6.00;99.90
15900;DHT22;8048;50.644;6.184;2023-02-02T10:52:59;5.90;99.90
15900;DHT22;8048;50.644;6.184;2023-02-02T10:55:38;5.90;99.90
15900;DHT22;8048;50.644;6.184;2023-02-02T11:03:12;6.00;99.90
15900;DHT22;8048;50.644;6.184;2023-02-02T11:05:38;6.00;99.90
15900;DHT22;8048;50.644;6.184;2023-02-02T11:08:36;6.10;99.90
15900;DHT22;8048;50.644;6.184;2023-02-02T11:11:15;6.10;99.90
15900;DHT22;8048;50.644;6.184;2023-02-02T11:18:40;6.10;99.90
15900;DHT22;8048;50.644;6.184;2023-02-02T11:21:19;6.10;99.90
15900;DHT22;8048;50.644;6.184;2023-02-02T11:23:58;6.10;99.90
15900;DHT22;8048;50.644;6.184;2023-02-02T11:26:25;6.10;99.90
15900;DHT22;8048;50.644;6.184;2023-02-02T11:28:55;6.10;99.90
15900;DHT22;8048;50.644;6.184;2023-02-02T11:31:35;6.10;99.90
15900;DHT22;8048;50.644;6.184;2023-02-02T11:34:21;6.10;99.90
15900;DHT22;8048;50.644;6.184;2023-02-02T11:37:13;6.10;99.90
15900;DHT22;8048;50.644;6.184;2023-02-02T11:39:41;6.10;99.90
15900;DHT22;8048;50.644;6.184;2023-02-02T11:44:37;6.10;99.90
15900;DHT22;8048;50.644;6.184;2023-02-02T11:47:04;6.20;99.90
15900;DHT22;8048;50.644;6.184;2023-02-02T11:49:36;6.20;99.90
15900;DHT22;8048;50.644;6.184;2023-02-02T11:52:05;6.20;99.90
15900;DHT22;8048;50.644;6.184;2023-02-02T11:54:40;6.30;99.90
15900;DHT22;8048;50.644;6.184;2023-02-02T11:57:09;6.30;99.90
15900;DHT22;8048;50.644;6.184;2023-02-02T11:59:42;6.30;99.90
15900;DHT22;8048;50.644;6.184;2023-02-02T12:02:28;6.30;99.90
15900;DHT22;8048;50.644;6.184;2023-02-02T12:07:38;6.20;99.90
15900;DHT22;8048;50.644;6.184;2023-02-02T12:10:21;6.30;99.90
15900;DHT22;8048;50.644;6.184;2023-02-02T12:15:34;6.20;99.90
15900;DHT22;8048;50.644;6.184;2023-02-02T12:18:40;6.20;99.90
15900;DHT22;8048;50.644;6.184;2023-02-02T12:21:50;6.30;99.90
15900;DHT22;8048;50.644;6.184;2023-02-02T12:24:34;6.30;99.90
15900;DHT22;8048;50.644;6.184;2023-02-02T12:27:32;6.40;99.90
15900;DHT22;8048;50.644;6.184;2023-02-02T12:33:05;6.40;99.90
15900;DHT22;8048;50.644;6.184;2023-02-02T12:35:47;6.40;99.90
15900;DHT22;8048;50.644;6.184;2023-02-02T12:38:24;6.50;99.90
15900;DHT22;8048;50.644;6.184;2023-02-02T12:41:25;6.50;99.90
15900;DHT22;8048;50.644;6.184;2023-02-02T12:50:14;6.70;99.90
15900;DHT22;8048;50.644;6.184;2023-02-02T12:53:27;6.70;99.90
15900;DHT22;8048;50.644;6.184;2023-02-02T12:58:52;6.80;99.90
15900;DHT22;8048;50.644;6.184;2023-02-02T13:04:02;6.80;99.90
15900;DHT22;8048;50.644;6.184;2023-02-02T13:06:52;6.80;99.90
15900;DHT22;8048;50.644;6.184;2023-02-02T13:09:27;6.90;99.90
15900;DHT22;8048;50.644;6.184;2023-02-02T13:12:08;6.90;99.90
15900;DHT22;8048;50.644;6.184;2023-02-02T13:14:44;6.90;99.90
15900;DHT22;8048;50.644;6.184;2023-02-02T13:17:15;6.90;99.90
15900;DHT22;8048;50.644;6.184;2023-02-02T13:19:51;7.00;99.90
15900;DHT22;8048;50.644;6.184;2023-02-02T13:22:23;7.00;99.90
15900;DHT22;8048;50.644;6.184;2023-02-02T13:24:51;7.00;99.90
15900;DHT22;8048;50.644;6.184;2023-02-02T13:27:20;7.00;99.90
15900;DHT22;8048;50.644;6.184;2023-02-02T13:32:45;7.00;99.90
15900;DHT22;8048;50.644;6.184;2023-02-02T13:35:20;6.90;99.90
15900;DHT22;8048;50.644;6.184;2023-02-02T13:38:13;7.00;99.90
15900;DHT22;8048;50.644;6.184;2023-02-02T13:40:42;7.00;99.90
15900;DHT22;8048;50.644;6.184;2023-02-02T13:57:03;7.00;99.90
15900;DHT22;8048;50.644;6.184;2023-02-02T13:59:47;7.20;99.90
15900;DHT22;8048;50.644;6.184;2023-02-02T14:02:38;7.20;99.90
15900;DHT22;8048;50.644;6.184;2023-02-02T14:05:06;7.20;99.90
15900;DHT22;8048;50.644;6.184;2023-02-02T14:07:44;7.20;99.90
15900;DHT22;8048;50.644;6.184;2023-02-02T14:10:27;7.20;99.90
15900;DHT22;8048;50.644;6.184;2023-02-02T14:12:54;7.20;99.90
15900;DHT22;8048;50.644;6.184;2023-02-02T14:15:38;7.20;99.90
15900;DHT22;8048;50.644;6.184;2023-02-02T14:18:05;7.30;99.90
15900;DHT22;8048;50.644;6.184;2023-02-02T14:20:41;7.30;99.90
15900;DHT22;8048;50.644;6.184;2023-02-02T14:26:10;7.50;99.90
15900;DHT22;8048;50.644;6.184;2023-02-02T14:28:47;7.60;99.90
15900;DHT22;8048;50.644;6.184;2023-02-02T14:31:41;7.70;99.90
15900;DHT22;8048;50.644;6.184;2023-02-02T14:34:35;7.80;99.90
15900;DHT22;8048;50.644;6.184;2023-02-02T14:42:50;7.60;99.90
15900;DHT22;8048;50.644;6.184;2023-02-02T14:45:47;7.60;99.90
15900;DHT22;8048;50.644;6.184;2023-02-02T14:48:19;7.60;99.90
15900;DHT22;8048;50.644;6.184;2023-02-02T14:50:57;7.60;99.90
15900;DHT22;8048;50.644;6.184;2023-02-02T14:53:32;7.70;99.90
15900;DHT22;8048;50.644;6.184;2023-02-02T14:56:14;7.80;99.90
15900;DHT22;8048;50.644;6.184;2023-02-02T14:58:42;7.70;99.90
15900;DHT22;8048;50.644;6.184;2023-02-02T15:22:49;7.30;99.90
15900;DHT22;8048;50.644;6.184;2023-02-02T15:25:43;7.20;99.90
15900;DHT22;8048;50.644;6.184;2023-02-02T15:28:23;7.20;99.90
15900;DHT22;8048;50.644;6.184;2023-02-02T15:31:15;7.10;99.90
15900;DHT22;8048;50.644;6.184;2023-02-02T15:33:41;7.10;99.90
15900;DHT22;8048;50.644;6.184;2023-02-02T15:36:12;7.10;99.90
15900;DHT22;8048;50.644;6.184;2023-02-02T15:38:40;7.10;99.90
15900;DHT22;8048;50.644;6.184;2023-02-02T15:41:18;7.00;99.90
15900;DHT22;8048;50.644;6.184;2023-02-02T15:43:46;7.10;99.90
15900;DHT22;8048;50.644;6.184;2023-02-02T15:46:23;7.00;99.90
15900;DHT22;8048;50.644;6.184;2023-02-02T15:49:28;7.00;99.90
15900;DHT22;8048;50.644;6.184;2023-02-02T15:51:57;7.00;99.90
15900;DHT22;8048;50.644;6.184;2023-02-02T15:54:29;7.00;99.90
15900;DHT22;8048;50.644;6.184;2023-02-02T15:56:58;7.00;99.90
15900;DHT22;8048;50.644;6.184;2023-02-02T15:59:47;7.00;99.90
15900;DHT22;8048;50.644;6.184;2023-02-02T16:02:22;7.00;99.90
15900;DHT22;8048;50.644;6.184;2023-02-02T16:04:50;6.90;99.90
15900;DHT22;8048;50.644;6.184;2023-02-02T16:07:29;6.90;99.90
15900;DHT22;8048;50.644;6.184;2023-02-02T16:09:55;6.90;99.90
15900;DHT22;8048;50.644;6.184;2023-02-02T16:12:25;6.90;99.90
15900;DHT22;8048;50.644;6.184;2023-02-02T16:14:52;6.90;99.90
15900;DHT22;8048;50.644;6.184;2023-02-02T16:17:26;6.80;99.90
15900;DHT22;8048;50.644;6.184;2023-02-02T16:20:01;6.80;99.90
15900;DHT22;8048;50.644;6.184;2023-02-02T16:22:27;6.80;99.90
15900;DHT22;8048;50.644;6.184;2023-02-02T16:24:58;6.80;99.90
15900;DHT22;8048;50.644;6.184;2023-02-02T16:27:26;6.80;99.90
15900;DHT22;8048;50.644;6.184;2023-02-02T16:29:56;6.80;99.90
15900;DHT22;8048;50.644;6.184;2023-02-02T16:32:33;6.80;99.90
15900;DHT22;8048;50.644;6.184;2023-02-02T16:35:01;6.80;99.90
15900;DHT22;8048;50.644;6.184;2023-02-02T16:37:31;6.70;99.90
15900;DHT22;8048;50.644;6.184;2023-02-02T16:40:22;6.70;99.90
15900;DHT22;8048;50.644;6.184;2023-02-02T16:43:13;6.70;99.90
15900;DHT22;8048;50.644;6.184;2023-02-02T16:45:49;6.70;99.90
15900;DHT22;8048;50.644;6.184;2023-02-02T16:48:37;6.70;99.90
15900;DHT22;8048;50.644;6.184;2023-02-02T16:54:12;6.60;99.90
15900;DHT22;8048;50.644;6.184;2023-02-02T16:56:47;6.60;99.90
15900;DHT22;8048;50.644;6.184;2023-02-02T16:59:29;6.60;99.90
15900;DHT22;8048;50.644;6.184;2023-02-02T17:04:31;6.60;99.90
15900;DHT22;8048;50.644;6.184;2023-02-02T17:07:06;6.60;99.90
15900;DHT22;8048;50.644;6.184;2023-02-02T17:09:35;6.60;99.90
15900;DHT22;8048;50.644;6.184;2023-02-02T17:12:24;6.60;99.90
15900;DHT22;8048;50.644;6.184;2023-02-02T17:14:57;6.60;99.90
15900;DHT22;8048;50.644;6.184;2023-02-02T17:17:25;6.60;99.90
15900;DHT22;8048;50.644;6.184;2023-02-02T17:19:51;6.50;99.90
15900;DHT22;8048;50.644;6.184;2023-02-02T17:22:19;6.50;99.90
15900;DHT22;8048;50.644;6.184;2023-02-02T17:24:47;6.50;99.90
15900;DHT22;8048;50.644;6.184;2023-02-02T17:27:29;6.40;99.90
15900;DHT22;8048;50.644;6.184;2023-02-02T17:29:55;6.50;99.90
15900;DHT22;8048;50.644;6.184;2023-02-02T17:32:22;6.50;99.90
15900;DHT22;8048;50.644;6.184;2023-02-02T17:34:49;6.50;99.90
15900;DHT22;8048;50.644;6.184;2023-02-02T17:37:14;6.50;99.90
15900;DHT22;8048;50.644;6.184;2023-02-02T17:39:40;6.50;99.90
15900;DHT22;8048;50.644;6.184;2023-02-02T17:42:32;6.60;99.90
15900;DHT22;8048;50.644;6.184;2023-02-02T17:44:58;6.50;99.90
15900;DHT22;8048;50.644;6.184;2023-02-02T17:47:24;6.60;99.90
15900;DHT22;8048;50.644;6.184;2023-02-02T17:49:49;6.50;99.90
15900;DHT22;8048;50.644;6.184;2023-02-02T17:52:15;6.50;99.90
15900;DHT22;8048;50.644;6.184;2023-02-02T17:54:41;6.50;99.90
15900;DHT22;8048;50.644;6.184;2023-02-02T17:57:06;6.50;99.90
15900;DHT22;8048;50.644;6.184;2023-02-02T17:59:32;6.50;99.90
15900;DHT22;8048;50.644;6.184;2023-02-02T18:01:57;6.40;99.90
15900;DHT22;8048;50.644;6.184;2023-02-02T18:04:23;6.50;99.90
15900;DHT22;8048;50.644;6.184;2023-02-02T18:06:49;6.50;99.90
15900;DHT22;8048;50.644;6.184;2023-02-02T18:09:15;6.60;99.90
15900;DHT22;8048;50.644;6.184;2023-02-02T18:11:40;6.60;99.90
15900;DHT22;8048;50.644;6.184;2023-02-02T18:14:06;6.50;99.90
15900;DHT22;8048;50.644;6.184;2023-02-02T18:16:31;6.60;99.90
15900;DHT22;8048;50.644;6.184;2023-02-02T18:18:57;6.50;99.90
15900;DHT22;8048;50.644;6.184;2023-02-02T18:21:23;6.50;99.90